Time;durP1;ratioP1;P1;durP2;ratioP2;P2;SDS_P1;SDS_P2;PMS_P1;PMS_P2;Temp;Humidity;BMP_temperature;BMP_pressure;BME280_temperature;BME280_humidity;BME280_pressure;Samples;Min_cycle;Max_cycle;Signal;HPM_P1;HPM_P2
2023/07/12 00:00:45;;;;;;;5.72;2.60;;;19.70;99.90;;;;;;5098732;28;20047;-57
2023/07/12 00:03:11;;;;;;;4.40;2.50;;;19.60;99.90;;;;;;5098781;28;20078;-58
2023/07/12 00:05:37;;;;;;;3.58;2.40;;;19.60;99.90;;;;;;5100597;28;20051;-58
2023/07/12 00:08:04;;;;;;;3.75;2.25;;;19.50;99.90;;;;;;5098431;28;20044;-57
2023/07/12 00:10:34;;;;;;;6.15;2.80;;;19.50;99.90;;;;;;5098917;28;20036;-57
2023/07/12 00:13:00;;;;;;;7.07;3.03;;;19.40;99.90;;;;;;5098297;28;20075;-57
2023/07/12 00:15:29;;;;;;;5.75;2.83;;;19.40;99.90;;;;;;5100180;28;20539;-57
2023/07/12 00:17:55;;;;;;;4.75;2.60;;;19.40;99.90;;;;;;5098516;28;20044;-57
2023/07/12 00:20:31;;;;;;;4.82;2.55;;;19.30;99.90;;;;;;5098704;28;20081;-57
2023/07/12 00:22:57;;;;;;;6.20;2.80;;;19.30;99.90;;;;;;5100311;28;20036;-57
2023/07/12 00:25:25;;;;;;;4.90;2.75;;;19.30;99.90;;;;;;5096416;28;20101;-57
2023/07/12 00:27:51;;;;;;;3.88;2.60;;;19.40;99.90;;;;;;5100599;28;20322;-57
2023/07/12 00:30:22;;;;;;;5.70;2.58;;;19.30;99.90;;;;;;5097152;28;20044;-57
2023/07/12 00:32:55;;;;;;;5.22;2.72;;;19.30;99.90;;;;;;5097769;28;20054;-57
2023/07/12 00:35:26;;;;;;;8.38;2.83;;;19.20;99.90;;;;;;5099982;28;20048;-57
2023/07/12 00:37:54;;;;;;;4.68;2.90;;;19.20;99.90;;;;;;5098104;28;20043;-57
2023/07/12 00:40:40;;;;;;;5.30;2.63;;;19.10;99.90;;;;;;5098480;28;20063;-57
2023/07/12 00:43:16;;;;;;;3.65;2.50;;;19.10;99.90;;;;;;5098658;28;20066;-57
2023/07/12 00:45:45;;;;;;;4.22;2.30;;;19.10;99.90;;;;;;5097587;28;20404;-58
2023/07/12 00:48:12;;;;;;;4.13;2.47;;;19.00;99.90;;;;;;5099457;28;20048;-57
2023/07/12 00:50:39;;;;;;;5.50;2.70;;;19.00;99.90;;;;;;5098077;28;20054;-57
2023/07/12 00:53:10;;;;;;;5.50;2.67;;;18.90;99.90;;;;;;5100473;28;20051;-58
2023/07/12 00:56:10;;;;;;;3.50;2.30;;;18.90;99.90;;;;;;5102129;28;20109;-57
2023/07/12 00:58:42;;;;;;;3.97;2.30;;;18.90;99.90;;;;;;5091983;27;20048;-57
2023/07/12 01:01:09;;;;;;;6.95;2.75;;;18.90;99.90;;;;;;5085697;28;20047;-57
2023/07/12 01:03:37;;;;;;;8.45;2.83;;;18.80;99.90;;;;;;5102027;28;20032;-57
2023/07/12 01:06:06;;;;;;;9.77;3.28;;;18.90;99.90;;;;;;5102591;28;20056;-58
2023/07/12 01:08:32;;;;;;;4.55;2.85;;;18.80;99.90;;;;;;5101883;28;20100;-57
2023/07/12 01:11:01;;;;;;;5.30;3.00;;;18.80;99.90;;;;;;5102179;28;20044;-57
2023/07/12 01:13:28;;;;;;;5.13;3.20;;;18.80;99.90;;;;;;5101472;28;20075;-57
2023/07/12 01:15:54;;;;;;;7.45;3.42;;;18.80;99.90;;;;;;5102338;28;20032;-57
2023/07/12 01:18:20;;;;;;;6.90;2.72;;;18.80;99.90;;;;;;5103616;28;20543;-58
2023/07/12 01:20:46;;;;;;;5.22;3.15;;;18.70;99.90;;;;;;5101656;28;20106;-57
2023/07/12 01:23:13;;;;;;;6.18;3.13;;;18.70;99.90;;;;;;5102386;28;20047;-57
2023/07/12 01:25:46;;;;;;;4.68;2.95;;;18.70;99.90;;;;;;5101490;28;20071;-57
2023/07/12 01:28:12;;;;;;;3.90;3.22;;;18.70;99.90;;;;;;5103421;28;20080;-57
2023/07/12 01:30:39;;;;;;;6.53;3.28;;;18.70;99.90;;;;;;5101508;28;20082;-57
2023/07/12 01:33:05;;;;;;;6.18;3.28;;;18.70;99.90;;;;;;5101627;28;20082;-58
2023/07/12 01:35:31;;;;;;;6.10;3.10;;;18.60;99.90;;;;;;5103335;28;20036;-57
2023/07/12 01:37:58;;;;;;;6.40;3.00;;;18.60;99.90;;;;;;5101265;28;20051;-57
2023/07/12 01:40:23;;;;;;;5.90;3.00;;;18.60;99.90;;;;;;5103027;28;20040;-57
2023/07/12 01:42:49;;;;;;;4.75;3.10;;;18.50;99.90;;;;;;5101309;28;20058;-57
2023/07/12 01:45:15;;;;;;;4.22;2.72;;;18.50;99.90;;;;;;5101746;28;20070;-57
2023/07/12 01:47:41;;;;;;;7.43;3.40;;;18.50;99.90;;;;;;5101036;28;20036;-56
2023/07/12 01:50:07;;;;;;;7.10;3.35;;;18.50;99.90;;;;;;5101765;28;20063;-58
2023/07/12 01:52:32;;;;;;;5.47;3.05;;;18.40;99.90;;;;;;5101479;28;20040;-57
2023/07/12 01:54:58;;;;;;;6.28;3.17;;;18.40;99.90;;;;;;5099510;28;20048;-58
2023/07/12 01:57:24;;;;;;;5.93;3.10;;;18.30;99.90;;;;;;5103210;28;20040;-57
2023/07/12 01:59:49;;;;;;;6.38;3.70;;;18.30;99.90;;;;;;5100666;28;20055;-58
2023/07/12 02:02:15;;;;;;;5.72;3.80;;;18.30;99.90;;;;;;5103106;28;20040;-57
2023/07/12 02:04:41;;;;;;;5.43;3.35;;;18.30;99.90;;;;;;5101648;28;20051;-57
2023/07/12 02:07:07;;;;;;;6.80;3.70;;;18.30;99.90;;;;;;5100265;28;20036;-57
2023/07/12 02:09:35;;;;;;;8.95;3.58;;;18.30;99.90;;;;;;5101246;28;20125;-57
2023/07/12 02:12:01;;;;;;;11.73;4.18;;;18.30;99.90;;;;;;5100348;28;20043;-57
2023/07/12 02:14:27;;;;;;;6.70;4.30;;;18.20;99.90;;;;;;5101660;28;20146;-57
2023/07/12 02:16:53;;;;;;;9.55;4.18;;;17.90;99.90;;;;;;5098993;28;20557;-57
2023/07/12 02:19:19;;;;;;;7.10;4.03;;;18.20;99.90;;;;;;5101747;28;20114;-56
2023/07/12 02:21:45;;;;;;;11.15;4.80;;;18.20;99.90;;;;;;5099647;28;20621;-56
2023/07/12 02:24:11;;;;;;;8.02;3.92;;;18.20;99.90;;;;;;5083308;28;20077;-57
2023/07/12 02:26:36;;;;;;;12.00;4.53;;;18.20;99.90;;;;;;5101043;28;20051;-57
2023/07/12 02:29:02;;;;;;;8.02;3.90;;;18.20;99.90;;;;;;5099036;28;20043;-57
2023/07/12 02:31:30;;;;;;;9.38;3.88;;;18.20;99.90;;;;;;5102261;28;20040;-57
2023/07/12 02:33:56;;;;;;;11.38;3.53;;;18.20;99.90;;;;;;5099949;28;20047;-57
2023/07/12 02:36:22;;;;;;;8.90;3.55;;;18.10;99.90;;;;;;5101549;28;20036;-57
2023/07/12 02:38:48;;;;;;;9.70;4.03;;;18.10;99.90;;;;;;5100521;28;20047;-58
2023/07/12 02:41:15;;;;;;;12.15;4.30;;;18.10;99.90;;;;;;5101366;28;20044;-59
2023/07/12 02:43:41;;;;;;;13.00;4.15;;;18.00;99.90;;;;;;5101872;28;20070;-58
2023/07/12 02:46:06;;;;;;;12.30;4.28;;;18.00;99.90;;;;;;5100189;28;20040;-58
2023/07/12 02:48:32;;;;;;;17.48;4.38;;;17.90;99.90;;;;;;5101944;28;20181;-58
2023/07/12 02:50:58;;;;;;;10.73;3.78;;;17.90;99.90;;;;;;5081573;28;20044;-57
2023/07/12 02:53:24;;;;;;;10.73;4.00;;;17.90;99.90;;;;;;5100691;28;20047;-57
2023/07/12 02:55:50;;;;;;;9.93;3.95;;;17.80;99.90;;;;;;5098781;28;20093;-57
2023/07/12 02:58:17;;;;;;;12.73;4.38;;;17.80;99.90;;;;;;5101498;28;20044;-57
2023/07/12 03:00:43;;;;;;;14.57;4.45;;;17.70;99.90;;;;;;5101410;28;20755;-56
2023/07/12 03:03:09;;;;;;;11.27;4.07;;;17.70;99.90;;;;;;5100004;28;20036;-58
2023/07/12 03:05:37;;;;;;;11.63;4.35;;;17.70;99.90;;;;;;5101651;28;20043;-57
2023/07/12 03:08:02;;;;;;;15.95;5.05;;;17.70;99.90;;;;;;5098166;28;20044;-57
2023/07/12 03:10:29;;;;;;;11.00;4.45;;;17.60;99.90;;;;;;5101517;28;20072;-57
2023/07/12 03:12:55;;;;;;;15.10;4.45;;;17.60;99.90;;;;;;5099640;28;20105;-57
2023/07/12 03:15:21;;;;;;;10.57;4.28;;;17.60;99.90;;;;;;5101120;28;20430;-57
2023/07/12 03:17:46;;;;;;;12.10;3.88;;;17.60;99.90;;;;;;5098840;28;20047;-56
2023/07/12 03:20:12;;;;;;;16.05;4.68;;;17.50;99.90;;;;;;5098308;28;20047;-58
2023/07/12 03:22:38;;;;;;;12.07;4.85;;;17.50;99.90;;;;;;5099704;28;20097;-57
2023/07/12 03:25:04;;;;;;;9.63;3.83;;;17.50;99.90;;;;;;5099279;28;20044;-58
2023/07/12 03:27:30;;;;;;;10.65;4.53;;;17.50;99.90;;;;;;5099931;28;20130;-58
2023/07/12 03:29:56;;;;;;;12.10;4.20;;;17.40;99.90;;;;;;5099028;28;20044;-58
2023/07/12 03:32:24;;;;;;;10.05;4.35;;;17.40;99.90;;;;;;5101111;28;20083;-58
2023/07/12 03:34:50;;;;;;;8.55;4.35;;;17.40;99.90;;;;;;5100323;28;20052;-58
2023/07/12 03:37:16;;;;;;;14.13;4.72;;;17.40;99.90;;;;;;5081138;28;20100;-60
2023/07/12 03:39:41;;;;;;;12.23;4.75;;;17.40;99.90;;;;;;5100294;28;20106;-58
2023/07/12 03:42:07;;;;;;;16.95;4.68;;;17.40;99.90;;;;;;5097703;28;20044;-58
2023/07/12 03:44:33;;;;;;;13.23;4.80;;;17.30;99.90;;;;;;5100956;28;20035;-58
2023/07/12 03:46:58;;;;;;;14.02;4.90;;;17.30;99.90;;;;;;5098788;28;20127;-58
2023/07/12 03:49:24;;;;;;;12.93;4.75;;;17.30;99.90;;;;;;5099656;28;20043;-59
2023/07/12 03:51:49;;;;;;;16.15;4.70;;;17.30;99.90;;;;;;5099676;28;20052;-59
2023/07/12 03:54:15;;;;;;;15.13;4.80;;;17.30;99.90;;;;;;5099610;28;20040;-59
2023/07/12 03:56:41;;;;;;;10.70;4.60;;;17.30;99.90;;;;;;5099164;28;20079;-59
2023/07/12 03:59:08;;;;;;;16.10;4.88;;;17.30;99.90;;;;;;5097389;28;20044;-59
2023/07/12 04:01:35;;;;;;;12.73;4.80;;;17.30;99.90;;;;;;5099270;28;20041;-58
2023/07/12 04:04:01;;;;;;;13.68;4.85;;;17.30;99.90;;;;;;5098396;28;20036;-58
2023/07/12 04:06:27;;;;;;;12.35;4.70;;;17.30;99.90;;;;;;5100942;28;20047;-58
2023/07/12 04:08:52;;;;;;;14.70;5.43;;;17.30;99.90;;;;;;5099460;28;20097;-58
2023/07/12 04:11:29;;;;;;;16.38;5.60;;;17.30;99.90;;;;;;5099062;28;20040;-59
2023/07/12 04:13:55;;;;;;;14.98;5.70;;;17.30;99.90;;;;;;5100100;28;20048;-58
2023/07/12 04:16:24;;;;;;;14.52;5.47;;;17.30;99.90;;;;;;5097356;28;20810;-58
2023/07/12 04:18:51;;;;;;;11.98;5.72;;;17.30;99.90;;;;;;5099142;28;20584;-58
2023/07/12 04:21:17;;;;;;;14.00;5.35;;;17.30;99.90;;;;;;5098278;28;20071;-58
2023/07/12 04:23:42;;;;;;;12.77;5.38;;;17.30;99.90;;;;;;5099136;28;20036;-58
2023/07/12 04:26:09;;;;;;;14.00;5.72;;;17.30;99.90;;;;;;5099310;28;20412;-58
2023/07/12 04:28:42;;;;;;;17.15;5.50;;;17.30;99.90;;;;;;5098874;28;20040;-58
2023/07/12 04:31:12;;;;;;;15.52;5.03;;;17.30;99.90;;;;;;5099892;28;20048;-58
2023/07/12 04:33:38;;;;;;;14.75;5.50;;;17.30;99.90;;;;;;5097034;28;20405;-58
2023/07/12 04:36:09;;;;;;;18.25;5.43;;;17.30;99.90;;;;;;5099033;28;20079;-58
2023/07/12 04:38:36;;;;;;;15.52;5.40;;;17.30;99.90;;;;;;5098399;28;20115;-57
2023/07/12 04:41:03;;;;;;;10.48;4.95;;;17.30;99.90;;;;;;5098409;28;20032;-58
2023/07/12 04:43:29;;;;;;;12.57;5.53;;;17.30;99.90;;;;;;5099818;28;20044;-57
2023/07/12 04:45:55;;;;;;;14.25;5.22;;;17.20;99.90;;;;;;5097942;28;20044;-57
2023/07/12 04:48:21;;;;;;;13.80;5.82;;;17.30;99.90;;;;;;5098615;28;20043;-56
2023/07/12 04:50:54;;;;;;;12.68;5.25;;;17.20;99.90;;;;;;5097816;28;20036;-58
2023/07/12 04:53:21;;;;;;;17.27;5.13;;;17.30;99.90;;;;;;5100283;28;20044;-57
2023/07/12 04:55:50;;;;;;;19.33;5.75;;;17.30;99.90;;;;;;5097127;28;20047;-56
2023/07/12 04:58:17;;;;;;;16.38;5.63;;;17.30;99.90;;;;;;5099130;28;20044;-58
2023/07/12 05:00:43;;;;;;;17.55;5.93;;;17.30;99.90;;;;;;5099706;28;20089;-57
2023/07/12 05:03:09;;;;;;;15.43;5.68;;;17.40;99.90;;;;;;5097737;28;20052;-58
2023/07/12 05:05:37;;;;;;;14.43;6.20;;;17.40;99.90;;;;;;5099955;28;20057;-58
2023/07/12 05:08:04;;;;;;;17.80;6.25;;;17.40;99.90;;;;;;5097743;28;20048;-57
2023/07/12 05:10:30;;;;;;;16.73;5.75;;;17.50;99.90;;;;;;5099816;28;20048;-58
2023/07/12 05:12:56;;;;;;;16.90;6.13;;;17.40;99.90;;;;;;5096622;28;20607;-57
2023/07/12 05:15:21;;;;;;;17.05;6.03;;;17.40;99.90;;;;;;5099087;28;20086;-57
2023/07/12 05:17:47;;;;;;;14.27;5.82;;;17.40;99.90;;;;;;5099244;28;20040;-57
2023/07/12 05:20:14;;;;;;;14.48;6.22;;;17.40;99.90;;;;;;5079656;28;20044;-57
2023/07/12 05:22:40;;;;;;;16.95;5.35;;;17.40;99.90;;;;;;5098149;28;20051;-57
2023/07/12 05:25:06;;;;;;;19.00;5.93;;;17.30;99.90;;;;;;5096228;28;20068;-56
2023/07/12 05:27:32;;;;;;;15.75;6.00;;;17.30;99.90;;;;;;5099927;28;20078;-57
2023/07/12 05:29:58;;;;;;;15.77;5.63;;;17.40;99.90;;;;;;5096458;28;20048;-57
2023/07/12 05:32:23;;;;;;;12.75;5.72;;;17.50;99.90;;;;;;5099160;28;20047;-57
2023/07/12 05:34:49;;;;;;;15.60;6.30;;;17.60;99.90;;;;;;5098828;28;20052;-57
2023/07/12 05:37:15;;;;;;;16.63;6.00;;;17.60;99.90;;;;;;5096532;28;20502;-57
2023/07/12 05:39:40;;;;;;;15.98;6.82;;;17.70;99.90;;;;;;5100366;28;20044;-57
2023/07/12 05:42:08;;;;;;;22.05;7.57;;;17.80;99.90;;;;;;5101113;28;20054;-57
2023/07/12 05:44:33;;;;;;;13.80;6.50;;;17.80;99.90;;;;;;5102050;28;20055;-57
2023/07/12 05:46:59;;;;;;;19.58;7.93;;;17.80;99.90;;;;;;5101371;28;20119;-57
2023/07/12 05:49:25;;;;;;;17.95;7.78;;;17.80;99.90;;;;;;5103365;28;20393;-57
2023/07/12 05:51:51;;;;;;;16.08;8.23;;;17.70;99.90;;;;;;5100711;28;20044;-57
2023/07/12 05:54:17;;;;;;;15.57;7.70;;;17.70;99.90;;;;;;5100523;28;20438;-57
2023/07/12 05:56:43;;;;;;;22.08;9.10;;;17.60;99.90;;;;;;5084458;28;20048;-58
2023/07/12 05:59:10;;;;;;;19.88;9.20;;;17.50;99.90;;;;;;5101231;28;20040;-58
2023/07/12 06:01:36;;;;;;;19.20;9.02;;;17.50;99.90;;;;;;5101864;28;20029;-58
2023/07/12 06:04:01;;;;;;;23.70;10.18;;;17.50;99.90;;;;;;5100659;28;20098;-58
2023/07/12 06:06:27;;;;;;;23.15;10.18;;;17.50;99.90;;;;;;5101882;28;20386;-58
2023/07/12 06:08:53;;;;;;;17.77;10.88;;;17.50;99.90;;;;;;5101668;28;20047;-58
2023/07/12 06:11:19;;;;;;;19.40;10.57;;;17.60;99.90;;;;;;5134170;27;20052;-58
2023/07/12 06:13:45;;;;;;;25.30;11.90;;;17.70;99.90;;;;;;5135060;27;20043;-58
2023/07/12 06:16:10;;;;;;;21.30;11.02;;;17.80;99.90;;;;;;5133595;27;20048;-58
2023/07/12 06:18:36;;;;;;;18.15;10.68;;;17.80;99.90;;;;;;5102518;28;20531;-59
2023/07/12 06:21:04;;;;;;;19.80;10.57;;;17.90;99.90;;;;;;5100345;28;20036;-58
2023/07/12 06:23:30;;;;;;;19.65;10.68;;;17.90;99.90;;;;;;5101788;28;20074;-59
2023/07/12 06:25:57;;;;;;;22.33;9.82;;;18.00;99.90;;;;;;5101023;28;20051;-57
2023/07/12 06:28:23;;;;;;;21.38;10.43;;;18.10;99.90;;;;;;5101489;28;20103;-58
2023/07/12 06:30:49;;;;;;;25.90;10.32;;;18.20;99.90;;;;;;5102076;28;20071;-58
2023/07/12 06:33:14;;;;;;;17.80;9.50;;;18.30;99.90;;;;;;5100329;28;20055;-59
2023/07/12 06:35:40;;;;;;;15.40;9.52;;;18.30;99.90;;;;;;5100936;28;20097;-59
2023/07/12 06:38:06;;;;;;;23.27;9.32;;;18.40;99.90;;;;;;5099941;28;20032;-57
2023/07/12 06:40:31;;;;;;;22.88;8.93;;;18.50;99.90;;;;;;5100667;28;20076;-57
2023/07/12 06:42:57;;;;;;;17.30;8.70;;;18.50;99.90;;;;;;5099292;28;20111;-57
2023/07/12 06:45:23;;;;;;;22.48;9.00;;;18.50;99.90;;;;;;5099973;28;20055;-58
2023/07/12 06:47:49;;;;;;;12.50;8.02;;;18.40;99.90;;;;;;5101738;28;20054;-57
2023/07/12 06:50:15;;;;;;;18.58;8.52;;;18.40;99.90;;;;;;5098443;28;20040;-57
2023/07/12 06:52:40;;;;;;;19.55;8.38;;;18.40;99.90;;;;;;5101024;28;20040;-58
2023/07/12 06:55:06;;;;;;;20.27;7.80;;;18.30;99.90;;;;;;5098199;28;20099;-57
2023/07/12 06:57:34;;;;;;;15.05;6.93;;;18.30;99.90;;;;;;5102121;28;20086;-57
2023/07/12 07:00:04;;;;;;;15.52;7.20;;;18.30;99.90;;;;;;5100172;28;20100;-57
2023/07/12 07:02:30;;;;;;;17.67;6.43;;;18.30;99.90;;;;;;5100810;28;20055;-58
2023/07/12 07:04:56;;;;;;;11.63;6.35;;;18.30;99.90;;;;;;5083239;28;20131;-58
2023/07/12 07:07:21;;;;;;;14.00;6.70;;;18.40;99.90;;;;;;5081392;28;20610;-58
2023/07/12 07:09:47;;;;;;;16.88;7.03;;;18.50;99.90;;;;;;5099951;28;20678;-57
2023/07/12 07:12:13;;;;;;;17.15;7.43;;;18.50;99.90;;;;;;5097979;28;20056;-58
2023/07/12 07:14:40;;;;;;;14.75;7.53;;;18.50;99.90;;;;;;5101913;28;20089;-57
2023/07/12 07:17:07;;;;;;;17.40;7.60;;;18.50;99.90;;;;;;5099811;28;20048;-56
2023/07/12 07:19:32;;;;;;;19.10;7.22;;;18.60;99.90;;;;;;5099720;28;20051;-57
2023/07/12 07:21:58;;;;;;;17.33;7.65;;;18.70;99.90;;;;;;5100913;28;20040;-57
2023/07/12 07:24:24;;;;;;;18.85;8.18;;;18.80;99.90;;;;;;5099645;28;20036;-57
2023/07/12 07:26:49;;;;;;;17.73;7.93;;;18.80;99.90;;;;;;5083046;28;20101;-57
2023/07/12 07:29:15;;;;;;;17.50;8.40;;;18.80;99.90;;;;;;5099068;28;20050;-57
2023/07/12 07:31:41;;;;;;;15.93;7.70;;;18.80;99.90;;;;;;5101128;28;20051;-57
2023/07/12 07:34:06;;;;;;;15.43;7.55;;;18.80;99.90;;;;;;5097998;28;20032;-57
2023/07/12 07:36:32;;;;;;;15.73;7.28;;;19.00;99.90;;;;;;5100860;28;20061;-57
2023/07/12 07:38:58;;;;;;;13.77;7.28;;;19.20;99.90;;;;;;5100426;28;20040;-57
2023/07/12 07:41:23;;;;;;;17.63;7.93;;;19.30;99.90;;;;;;5097932;28;20103;-57
2023/07/12 07:43:49;;;;;;;14.30;7.78;;;19.50;99.90;;;;;;5100754;28;20070;-57
2023/07/12 07:46:16;;;;;;;13.57;7.20;;;19.70;99.90;;;;;;5099010;28;20915;-57
2023/07/12 07:48:41;;;;;;;14.52;7.13;;;19.80;99.90;;;;;;5099667;28;20052;-57
2023/07/12 07:51:08;;;;;;;16.85;7.28;;;19.90;99.90;;;;;;5097272;28;20279;-57
2023/07/12 07:53:34;;;;;;;11.07;6.50;;;20.00;99.90;;;;;;5100882;28;20085;-57
2023/07/12 07:56:00;;;;;;;17.63;6.75;;;20.10;99.90;;;;;;5099638;28;20040;-57
2023/07/12 07:58:26;;;;;;;15.43;5.80;;;20.20;99.90;;;;;;5099531;28;20521;-57
2023/07/12 08:00:52;;;;;;;15.18;6.13;;;20.40;99.90;;;;;;5100747;28;20043;-57
2023/07/12 08:03:18;;;;;;;15.55;6.15;;;20.50;99.90;;;;;;5098166;28;20043;-57
2023/07/12 08:05:44;;;;;;;16.90;6.57;;;20.60;99.90;;;;;;5099330;28;20067;-57
2023/07/12 08:08:10;;;;;;;17.20;6.20;;;20.70;99.90;;;;;;5096954;28;20032;-58
2023/07/12 08:10:35;;;;;;;12.10;5.30;;;20.80;99.90;;;;;;5099234;28;20040;-57
2023/07/12 08:13:01;;;;;;;16.45;5.65;;;20.90;99.90;;;;;;5098974;28;20040;-57
2023/07/12 08:15:27;;;;;;;10.70;5.00;;;20.90;99.90;;;;;;5098129;28;20036;-57
2023/07/12 08:17:54;;;;;;;11.13;4.93;;;20.80;99.90;;;;;;5081967;28;20051;-57
2023/07/12 08:20:21;;;;;;;13.65;4.78;;;20.60;99.90;;;;;;5098304;28;20048;-58
2023/07/12 08:22:47;;;;;;;12.55;4.85;;;20.40;99.90;;;;;;5100489;28;20032;-57
2023/07/12 08:25:14;;;;;;;12.75;5.00;;;20.00;99.90;;;;;;5098087;28;20040;-58
2023/07/12 08:27:39;;;;;;;13.88;4.55;;;20.10;99.90;;;;;;5100910;28;20120;-57
2023/07/12 08:30:06;;;;;;;15.27;4.78;;;19.90;99.90;;;;;;5097662;28;20117;-57
2023/07/12 08:32:33;;;;;;;12.20;4.32;;;19.80;99.90;;;;;;5099421;28;20071;-58
2023/07/12 08:35:00;;;;;;;15.93;5.43;;;19.80;99.90;;;;;;5099687;28;20105;-57
2023/07/12 08:37:26;;;;;;;13.15;5.25;;;19.70;99.90;;;;;;5098033;28;20095;-58
2023/07/12 08:39:52;;;;;;;9.70;5.47;;;19.50;99.90;;;;;;5099849;28;20070;-57
2023/07/12 08:42:25;;;;;;;12.93;5.63;;;19.30;99.90;;;;;;5096349;28;20040;-57
2023/07/12 08:44:52;;;;;;;14.63;6.50;;;19.20;99.90;;;;;;5099392;28;20048;-57
2023/07/12 08:47:25;;;;;;;13.50;5.95;;;19.20;99.90;;;;;;5097241;28;20032;-57
2023/07/12 08:49:51;;;;;;;14.18;5.32;;;19.10;99.90;;;;;;5099026;28;20380;-58
2023/07/12 08:52:22;;;;;;;16.50;6.20;;;19.10;99.90;;;;;;5098330;28;20048;-58
2023/07/12 08:54:49;;;;;;;19.27;6.60;;;19.00;99.90;;;;;;5096743;28;20048;-58
2023/07/12 08:57:23;;;;;;;17.60;6.65;;;19.00;99.90;;;;;;5098872;28;20044;-60
2023/07/12 09:00:14;;;;;;;15.00;5.97;;;19.00;99.90;;;;;;5098046;28;20485;-58
2023/07/12 09:02:40;;;;;;;17.33;6.38;;;19.20;99.90;;;;;;5097563;28;20099;-58
2023/07/12 09:05:18;;;;;;;13.65;6.03;;;19.50;99.90;;;;;;5098221;28;20429;-58
2023/07/12 09:08:08;;;;;;;18.13;6.07;;;19.60;99.90;;;;;;5097897;28;20079;-59
2023/07/12 09:10:43;;;;;;;12.52;5.53;;;19.90;99.90;;;;;;5099889;28;20044;-58
2023/07/12 09:13:11;;;;;;;15.75;6.13;;;20.20;99.90;;;;;;5097504;28;20052;-58
2023/07/12 09:15:48;;;;;;;17.85;5.32;;;20.40;99.90;;;;;;5101418;28;20035;-58
2023/07/12 09:18:34;;;;;;;16.00;4.75;;;20.60;99.90;;;;;;5086963;28;20040;-59
2023/07/12 09:21:09;;;;;;;13.82;4.03;;;20.70;99.90;;;;;;5101606;28;20077;-59
2023/07/12 09:23:40;;;;;;;17.08;4.40;;;20.80;99.90;;;;;;5103623;28;20042;-58
2023/07/12 09:26:32;;;;;;;13.20;4.32;;;20.60;99.90;;;;;;5102974;28;20044;-56
2023/07/12 09:29:05;;;;;;;14.13;4.13;;;20.50;99.90;;;;;;5098558;28;20082;-59
2023/07/12 09:31:37;;;;;;;16.40;4.07;;;20.40;99.90;;;;;;5103656;28;20044;-58
2023/07/12 09:34:05;;;;;;;13.82;3.47;;;20.20;99.90;;;;;;5101546;28;20040;-59
2023/07/12 09:36:38;;;;;;;12.77;3.60;;;20.20;99.90;;;;;;5103196;28;20036;-58
2023/07/12 09:39:05;;;;;;;14.10;3.90;;;20.10;99.90;;;;;;5103042;28;20104;-58
2023/07/12 09:41:31;;;;;;;9.50;3.85;;;20.00;99.90;;;;;;5099957;28;20052;-58
2023/07/12 09:44:00;;;;;;;11.48;3.60;;;20.10;99.90;;;;;;5101684;28;20032;-58
2023/07/12 09:47:07;;;;;;;9.15;3.50;;;20.10;99.90;;;;;;5099903;28;20056;-58
2023/07/12 09:49:57;;;;;;;14.53;4.03;;;20.40;99.90;;;;;;5101210;28;20084;-59
2023/07/12 09:52:31;;;;;;;9.68;3.45;;;20.60;99.90;;;;;;5101493;28;20302;-59
2023/07/12 09:55:04;;;;;;;12.18;3.85;;;20.80;99.90;;;;;;5100920;28;20028;-59
2023/07/12 09:57:56;;;;;;;8.43;3.25;;;20.50;99.90;;;;;;5103235;28;20266;-58
2023/07/12 10:00:30;;;;;;;11.05;3.33;;;20.80;99.90;;;;;;5102402;28;20040;-58
2023/07/12 10:03:07;;;;;;;12.32;3.00;;;20.90;99.90;;;;;;5101072;28;20042;-58
2023/07/12 10:05:35;;;;;;;10.23;3.03;;;20.90;99.90;;;;;;5102884;28;20044;-58
2023/07/12 10:08:05;;;;;;;5.32;2.47;;;20.90;99.90;;;;;;5100703;28;20051;-59
2023/07/12 10:10:34;;;;;;;8.13;2.53;;;20.90;99.90;;;;;;5102855;28;20048;-58
2023/07/12 10:13:12;;;;;;;8.30;2.88;;;21.00;99.90;;;;;;5101315;28;20087;-55
2023/07/12 10:15:39;;;;;;;6.82;2.15;;;21.10;99.90;;;;;;5101224;28;20073;-58
2023/07/12 10:18:05;;;;;;;6.70;2.03;;;21.40;99.90;;;;;;5100842;28;20048;-58
2023/07/12 10:20:32;;;;;;;4.32;1.90;;;21.50;99.90;;;;;;5099266;28;20495;-58
2023/07/12 10:22:58;;;;;;;4.45;1.90;;;21.60;99.90;;;;;;5101658;28;20108;-58
2023/07/12 10:25:34;;;;;;;6.20;1.83;;;21.50;99.90;;;;;;5100260;28;20048;-58
2023/07/12 10:28:23;;;;;;;4.85;1.63;;;21.50;99.90;;;;;;5102211;28;20044;-57
2023/07/12 10:30:50;;;;;;;3.40;1.70;;;21.40;99.90;;;;;;5102015;28;20058;-57
2023/07/12 10:33:16;;;;;;;4.40;1.95;;;21.30;99.90;;;;;;5100535;28;20048;-58
2023/07/12 10:35:46;;;;;;;5.13;1.77;;;21.30;99.90;;;;;;5101257;28;20046;-58
2023/07/12 10:38:15;;;;;;;8.15;1.80;;;21.30;99.90;;;;;;5100230;28;20492;-58
2023/07/12 10:40:49;;;;;;;7.88;2.50;;;21.30;99.90;;;;;;5102068;28;20076;-58
2023/07/12 10:43:39;;;;;;;6.40;2.40;;;21.30;99.90;;;;;;5101719;28;20051;-57
2023/07/12 10:46:32;;;;;;;7.18;2.40;;;21.30;99.90;;;;;;5100176;28;20036;-58
2023/07/12 10:49:02;;;;;;;7.72;2.58;;;21.40;99.90;;;;;;5102348;28;20504;-58
2023/07/12 10:51:27;;;;;;;6.82;2.15;;;21.60;99.90;;;;;;5082512;28;20051;-59
2023/07/12 10:53:55;;;;;;;7.00;2.25;;;21.70;99.90;;;;;;5100190;28;20147;-58
2023/07/12 10:56:27;;;;;;;7.18;2.30;;;21.80;99.90;;;;;;5101899;28;20036;-58
2023/07/12 10:58:59;;;;;;;4.45;1.85;;;21.80;99.90;;;;;;5098484;28;20131;-58
2023/07/12 11:01:43;;;;;;;7.90;2.53;;;21.80;99.90;;;;;;5102044;28;20047;-58
2023/07/12 11:04:15;;;;;;;8.88;2.00;;;21.80;99.90;;;;;;5099968;28;20082;-58
2023/07/12 11:07:09;;;;;;;5.50;2.40;;;21.80;99.90;;;;;;5099912;28;20085;-58
2023/07/12 11:09:44;;;;;;;7.10;2.00;;;21.80;99.90;;;;;;5074858;28;20087;-57
2023/07/12 11:12:13;;;;;;;7.57;2.05;;;21.80;99.90;;;;;;5097929;28;20464;-58
2023/07/12 11:14:39;;;;;;;5.00;1.50;;;21.80;99.90;;;;;;5101960;28;20051;-58
2023/07/12 11:17:09;;;;;;;5.30;1.38;;;21.90;99.90;;;;;;5099964;28;20094;-58
2023/07/12 11:19:34;;;;;;;3.60;1.42;;;22.00;99.90;;;;;;5099282;28;20095;-57
2023/07/12 11:22:17;;;;;;;4.13;1.73;;;22.00;99.90;;;;;;5101234;28;20040;-58
2023/07/12 11:24:52;;;;;;;4.63;1.80;;;22.00;99.90;;;;;;5098150;28;20044;-58
2023/07/12 11:27:42;;;;;;;9.43;2.08;;;22.10;99.90;;;;;;5101746;28;20055;-58
2023/07/12 11:30:36;;;;;;;5.00;1.60;;;22.10;99.90;;;;;;5099918;28;20055;-57
2023/07/12 11:33:21;;;;;;;10.95;2.13;;;22.10;99.90;;;;;;5097847;28;20036;-58
2023/07/12 11:36:06;;;;;;;6.37;1.90;;;22.10;99.90;;;;;;5101355;28;20062;-58
2023/07/12 11:38:34;;;;;;;3.17;1.50;;;21.20;99.90;;;;;;5098968;28;20044;-57
2023/07/12 11:41:15;;;;;;;3.38;1.50;;;22.10;99.90;;;;;;5099998;28;20100;-58
2023/07/12 11:43:41;;;;;;;4.25;1.65;;;22.20;99.90;;;;;;5099316;28;20089;-57
2023/07/12 11:46:14;;;;;;;3.45;1.85;;;22.20;99.90;;;;;;5097697;28;20503;-58
2023/07/12 11:48:53;;;;;;;5.50;1.58;;;22.20;99.90;;;;;;5100864;28;20591;-57
2023/07/12 11:51:36;;;;;;;3.38;1.52;;;22.20;99.90;;;;;;5097911;28;20051;-58
2023/07/12 11:54:40;;;;;;;4.07;1.48;;;22.30;99.90;;;;;;5098462;28;20056;-59
2023/07/12 11:57:11;;;;;;;4.57;1.85;;;22.30;99.90;;;;;;5099297;28;20040;-58
2023/07/12 11:59:39;;;;;;;5.28;1.73;;;22.40;99.90;;;;;;5098505;28;20040;-57
2023/07/12 12:02:14;;;;;;;3.65;1.52;;;22.30;99.90;;;;;;5099341;28;20044;-57
2023/07/12 12:04:40;;;;;;;4.05;1.40;;;22.40;99.90;;;;;;5100280;28;20052;-57
2023/07/12 12:07:20;;;;;;;2.80;1.58;;;22.50;99.90;;;;;;5098894;28;20864;-58
2023/07/12 12:09:48;;;;;;;3.58;1.10;;;22.50;99.90;;;;;;5100228;28;20047;-58
2023/07/12 12:12:19;;;;;;;3.22;1.30;;;22.50;99.80;;;;;;5096898;28;20173;-58
2023/07/12 12:14:48;;;;;;;3.10;1.33;;;22.50;99.30;;;;;;5100745;28;20063;-58
2023/07/12 12:17:26;;;;;;;3.10;1.30;;;22.40;99.50;;;;;;5097838;28;20078;-57
2023/07/12 12:20:09;;;;;;;3.33;1.20;;;22.40;99.30;;;;;;5098688;28;20117;-58
2023/07/12 12:22:40;;;;;;;2.85;1.50;;;22.60;99.10;;;;;;5098907;28;20044;-57
2023/07/12 12:25:15;;;;;;;2.33;1.10;;;22.70;99.50;;;;;;5098126;28;20563;-58
2023/07/12 12:27:43;;;;;;;5.75;1.48;;;22.90;99.30;;;;;;5100505;28;20503;-58
2023/07/12 12:30:15;;;;;;;4.45;1.30;;;23.10;99.90;;;;;;5099177;28;20047;-57
2023/07/12 12:32:41;;;;;;;5.93;1.45;;;23.20;99.50;;;;;;5097529;28;20110;-58
2023/07/12 12:35:13;;;;;;;3.95;2.00;;;23.40;99.70;;;;;;5100036;28;20040;-58
2023/07/12 12:37:39;;;;;;;3.65;1.40;;;23.40;98.60;;;;;;5098299;28;20404;-58
2023/07/12 12:40:20;;;;;;;3.65;1.60;;;23.60;98.90;;;;;;5099959;28;20043;-58
2023/07/12 12:43:00;;;;;;;3.83;1.30;;;23.80;99.60;;;;;;5098339;28;20094;-58
2023/07/12 12:45:30;;;;;;;3.72;1.40;;;24.00;97.10;;;;;;5097501;28;20044;-58
2023/07/12 12:47:56;;;;;;;5.28;1.73;;;24.20;97.70;;;;;;5098427;28;20043;-58
2023/07/12 12:50:23;;;;;;;3.10;1.20;;;24.30;97.70;;;;;;5095656;28;20459;-58